メインページ
METAR-TAF:

METAR-TAF

空港 :

北京, 中華人民共和国

北京首都国際空港

緯度: 39-56N, 経度: 116-17E, 海抜: 55m

現時点の気象観測

当レポートは29分前の16:00(UTC)に作成
北/北東の風 6kt
気温 19°C
湿度 100%
気圧 1007 hPa
視程: 4000m
高度700ftの雲は散在している
高度3300ftの曇り
小雨, 靄

METAR: ZBAA 221600Z 03003MPS 4000 -RA BR SCT007 OVC033 19/19 Q1007 NOSIG

時間: 00:29 (16:29 UTC)

予報

当レポートは6時間59分前の09:30(UTC)に作成
予報は22日の 12時(UTC)から 23日の 12時(UTC)まで有効
の風 8kt
視程: 3500m
高度4000ftの曇り
小雨, 靄
22日の 12時(UTC)から 22日の 18時(UTC)まで一時的に
視程: 2500m
23日の 06時(UTC)から 23日の 12時(UTC)まで一時的に
高度4000ftの雲はほとんどない, 積乱雲.
高度4000ftの千切れ雲あり
激しい雷雨, 小雨

TAF: ZBAA 220930Z 2212/2312 09004MPS 3500 -RA BR OVC040 TX25/2307Z TN18/2221Z TEMPO 2212/2218 2500 RA TEMPO 2306/2312 -TSRA FEW040CB BKN040

4,000以上の空港の気象観測と天気予報(METAR報とTAF報)

利用可能な観測所は地図上に黄色い丸と赤い丸で示す。

丸の上にカーソルを重ねると観測所名を参照できる。

次にクリックすると気象観測と天気予報を参照できる。

マップの切り替え:黒色「×」印の緑ボタンをクリックして拡大、「-」印の緑ボタンをクリックして縮小、緑色の三角印をクリックして隣りの地図に切り替え


METAR-TAF: